createdAt,value
2023-01-01T00:01:32.312Z,23.20
2023-01-01T00:04:12.985Z,14.50
2023-01-01T00:06:42.832Z,7.50
2023-01-01T00:09:30.201Z,11.10
2023-01-01T00:11:58.452Z,26.00
2023-01-01T00:14:37.136Z,29.70
2023-01-01T00:17:06.699Z,11.70
2023-01-01T00:19:36.099Z,13.90
2023-01-01T00:22:52.639Z,20.00
2023-01-01T00:25:09.196Z,20.30
2023-01-01T00:27:50.124Z,21.80
2023-01-01T00:30:22.557Z,15.40
2023-01-01T00:32:54.607Z,7.60
2023-01-01T00:35:26.095Z,37.40
2023-01-01T00:37:56.182Z,21.80
2023-01-01T00:40:33.574Z,22.20
2023-01-01T00:43:01.935Z,35.60
2023-01-01T00:45:37.196Z,22.70
2023-01-01T00:48:20.215Z,25.70
2023-01-01T00:51:01.315Z,10.50
2023-01-01T00:53:35.544Z,10.70
2023-01-01T00:56:19.072Z,20.80
2023-01-01T01:01:35.051Z,13.90
2023-01-01T01:06:44.475Z,16.70
2023-01-01T01:09:15.299Z,11.60
2023-01-01T01:11:50.601Z,13.60
2023-01-01T01:14:26.260Z,20.50
2023-01-01T01:16:55.680Z,8.30
2023-01-01T01:19:27.853Z,7.20
2023-01-01T01:21:56.088Z,10.40
2023-01-01T01:24:24.430Z,8.80
2023-01-01T01:26:54.060Z,7.80
2023-01-01T01:29:24.188Z,12.20
2023-01-01T01:31:53.334Z,15.80
2023-01-01T01:34:27.903Z,9.50
2023-01-01T01:36:56.999Z,6.70
2023-01-01T01:39:25.335Z,7.20
2023-01-01T01:41:53.699Z,6.50
2023-01-01T01:44:47.710Z,6.20
2023-01-01T01:47:31.377Z,6.00
2023-01-01T01:50:11.806Z,18.70
2023-01-01T01:52:57.356Z,15.30
2023-01-01T01:55:30.442Z,4.60
2023-01-01T01:57:58.893Z,6.90
2023-01-01T02:00:27.326Z,4.40
2023-01-01T02:03:06.408Z,9.80
2023-01-01T02:05:37.813Z,5.90
2023-01-01T02:08:07.220Z,10.50
2023-01-01T02:10:36.583Z,9.70
2023-01-01T02:13:05.069Z,6.10
2023-01-01T02:15:49.730Z,21.80
2023-01-01T02:18:26.204Z,10.80
2023-01-01T02:21:08.443Z,11.70
2023-01-01T02:23:55.516Z,11.40
2023-01-01T02:26:43.786Z,7.50
2023-01-01T02:29:38.674Z,8.80
2023-01-01T02:32:20.755Z,19.50
2023-01-01T02:35:26.098Z,15.90
2023-01-01T02:37:59.591Z,14.50
2023-01-01T02:40:29.526Z,13.10
2023-01-01T02:42:58.950Z,17.20
2023-01-01T02:45:27.302Z,14.10
2023-01-01T02:47:55.632Z,16.70
2023-01-01T02:50:29.027Z,13.60
2023-01-01T02:53:24.742Z,16.80
2023-01-01T02:59:15.587Z,13.60
2023-01-01T03:02:02.357Z,11.30
2023-01-01T03:04:46.211Z,11.80
2023-01-01T03:07:40.652Z,18.90
2023-01-01T03:10:18.876Z,25.60
2023-01-01T03:12:57.166Z,29.80
2023-01-01T03:16:05.820Z,19.10
2023-01-01T03:18:41.640Z,17.60
2023-01-01T03:23:50.234Z,26.30
2023-01-01T03:26:21.049Z,20.60
2023-01-01T03:28:59.096Z,8.30
2023-01-01T03:31:27.568Z,9.20
2023-01-01T03:34:10.802Z,7.60
2023-01-01T03:36:44.407Z,10.30
2023-01-01T03:39:27.803Z,8.20
2023-01-01T03:42:34.802Z,8.00
2023-01-01T03:45:20.233Z,9.60
2023-01-01T03:47:49.034Z,7.70
2023-01-01T03:50:20.373Z,9.60
2023-01-01T03:52:58.207Z,8.60
2023-01-01T03:55:32.695Z,9.50
2023-01-01T03:58:23.641Z,10.00
2023-01-01T04:01:17.644Z,11.40
2023-01-01T04:03:47.939Z,8.40
2023-01-01T04:06:16.619Z,5.90
2023-01-01T04:08:47.324Z,7.60
2023-01-01T04:11:40.807Z,8.30
2023-01-01T04:14:10.174Z,8.20
2023-01-01T04:16:38.718Z,8.10
2023-01-01T04:19:07.165Z,4.40
2023-01-01T04:21:35.463Z,5.80
2023-01-01T04:24:04.085Z,7.10
2023-01-01T04:26:32.348Z,5.60
2023-01-01T04:29:00.665Z,7.70
2023-01-01T04:31:28.996Z,6.20
2023-01-01T04:33:57.524Z,7.00
2023-01-01T04:36:28.456Z,6.30
2023-01-01T04:38:57.027Z,7.10
2023-01-01T04:41:25.294Z,8.00
2023-01-01T04:43:53.531Z,4.80
2023-01-01T04:46:23.185Z,5.10
2023-01-01T04:48:52.092Z,6.70
2023-01-01T04:51:22.585Z,8.40
2023-01-01T04:53:50.928Z,8.00
2023-01-01T04:56:21.693Z,7.30
2023-01-01T04:58:50.242Z,8.20
2023-01-01T05:01:25.419Z,8.60
2023-01-01T05:03:55.013Z,8.20
2023-01-01T05:06:25.814Z,11.00
2023-01-01T05:08:55.883Z,9.30
2023-01-01T05:11:27.760Z,8.70
2023-01-01T05:14:00.762Z,8.70
2023-01-01T05:16:31.904Z,8.50
2023-01-01T05:19:00.442Z,8.70
2023-01-01T05:21:32.174Z,9.60
2023-01-01T05:24:03.584Z,7.80
2023-01-01T05:26:34.943Z,12.10
2023-01-01T05:29:04.109Z,12.30
2023-01-01T05:31:36.230Z,8.90
2023-01-01T05:36:38.943Z,12.10
2023-01-01T05:39:13.149Z,8.40
2023-01-01T05:41:42.402Z,9.60
2023-01-01T05:44:11.987Z,11.30
2023-01-01T05:46:40.406Z,12.00
2023-01-01T05:49:12.337Z,7.60
2023-01-01T05:56:37.856Z,9.40
2023-01-01T05:59:06.251Z,9.50
2023-01-01T06:01:38.693Z,11.40
2023-01-01T06:04:10.406Z,9.70
2023-01-01T06:06:38.750Z,9.20
2023-01-01T06:09:12.186Z,10.30
2023-01-01T06:11:40.535Z,9.40
2023-01-01T06:14:08.919Z,7.80
2023-01-01T06:16:38.123Z,9.30
2023-01-01T06:19:06.493Z,9.10
2023-01-01T06:21:35.061Z,8.80
2023-01-01T06:24:03.573Z,10.60
2023-01-01T06:26:33.330Z,13.20
2023-01-01T06:29:03.321Z,14.40
2023-01-01T06:31:40.127Z,8.90
2023-01-01T06:34:09.592Z,11.70
2023-01-01T06:36:38.082Z,9.30
2023-01-01T06:39:06.707Z,9.40
2023-01-01T06:41:35.086Z,9.70
2023-01-01T06:44:03.575Z,9.70
2023-01-01T06:46:37.084Z,7.90
2023-01-01T06:49:10.190Z,9.50
2023-01-01T06:51:44.132Z,10.90
2023-01-01T06:54:12.581Z,10.60
2023-01-01T06:56:40.835Z,10.70
2023-01-01T06:59:09.274Z,10.30
2023-01-01T07:01:44.036Z,8.00
2023-01-01T07:04:16.133Z,9.50
2023-01-01T07:06:44.619Z,11.50
2023-01-01T07:09:13.058Z,10.00
2023-01-01T07:11:41.353Z,8.90
2023-01-01T07:14:09.769Z,9.10
2023-01-01T07:16:38.118Z,10.20
2023-01-01T07:19:06.474Z,9.80
2023-01-01T07:21:37.696Z,10.60
2023-01-01T07:24:07.057Z,11.00
2023-01-01T07:26:35.364Z,12.80
2023-01-01T07:29:07.858Z,13.30
2023-01-01T07:31:41.532Z,12.60
2023-01-01T07:34:14.973Z,10.90
2023-01-01T07:36:43.614Z,10.30
2023-01-01T07:39:12.358Z,13.30
2023-01-01T07:41:40.873Z,10.50
2023-01-01T07:44:09.393Z,9.70
2023-01-01T07:46:37.978Z,10.40
2023-01-01T07:49:06.382Z,9.70
2023-01-01T07:51:35.930Z,13.10
2023-01-01T07:54:07.355Z,18.00
2023-01-01T07:56:36.630Z,13.70
2023-01-01T07:59:08.355Z,14.30
2023-01-01T08:01:38.238Z,14.00
2023-01-01T08:04:07.643Z,11.10
2023-01-01T08:06:38.006Z,12.80
2023-01-01T08:09:06.439Z,10.80
2023-01-01T08:11:34.702Z,9.50
2023-01-01T08:14:03.139Z,10.10
2023-01-01T08:16:31.650Z,8.20
2023-01-01T08:19:00.049Z,10.70
2023-01-01T08:21:28.645Z,10.90
2023-01-01T08:23:57.502Z,10.50
2023-01-01T08:26:32.086Z,8.90
2023-01-01T08:29:04.347Z,8.70
2023-01-01T08:31:33.511Z,10.60
2023-01-01T08:34:02.015Z,9.50
2023-01-01T08:36:30.363Z,7.80
2023-01-01T08:38:58.904Z,8.60
2023-01-01T08:41:27.191Z,8.20
2023-01-01T08:43:55.508Z,10.90
2023-01-01T08:46:23.943Z,9.50
2023-01-01T08:48:52.415Z,15.90
2023-01-01T08:51:21.497Z,26.50
2023-01-01T08:53:51.405Z,24.00
2023-01-01T08:56:20.656Z,19.20
2023-01-01T08:58:49.906Z,16.50
2023-01-01T09:01:22.375Z,13.40
2023-01-01T09:03:51.006Z,16.10
2023-01-01T09:06:19.972Z,13.00
2023-01-01T09:08:48.386Z,14.90
2023-01-01T09:11:28.498Z,16.20
2023-01-01T09:13:56.917Z,15.70
2023-01-01T09:16:25.597Z,18.60
2023-01-01T09:18:53.977Z,18.00
2023-01-01T09:21:22.418Z,15.20
2023-01-01T09:23:50.798Z,11.30
2023-01-01T09:26:19.228Z,13.50
2023-01-01T09:28:47.565Z,10.20
2023-01-01T09:31:16.086Z,15.40
2023-01-01T09:33:44.904Z,11.60
2023-01-01T09:36:23.503Z,10.00
2023-01-01T09:38:53.490Z,9.10
2023-01-01T09:41:33.741Z,12.40
2023-01-01T09:44:25.217Z,12.30
2023-01-01T09:46:54.899Z,17.50
2023-01-01T09:49:38.508Z,21.00
2023-01-01T09:52:07.334Z,19.30
2023-01-01T09:54:56.038Z,10.40
2023-01-01T09:57:32.167Z,12.50
2023-01-01T10:00:03.833Z,15.50
2023-01-01T10:02:51.753Z,13.10
2023-01-01T10:05:43.380Z,12.40
2023-01-01T10:08:23.690Z,13.00
2023-01-01T10:10:58.350Z,11.30
2023-01-01T10:13:46.208Z,11.60
2023-01-01T10:16:34.421Z,11.90
2023-01-01T10:19:24.903Z,15.00
2023-01-01T10:21:58.326Z,14.30
2023-01-01T10:24:36.612Z,17.40
2023-01-01T10:27:06.870Z,13.90
2023-01-01T10:30:01.316Z,14.70
2023-01-01T10:32:39.386Z,11.90
2023-01-01T10:35:15.058Z,17.00
2023-01-01T10:37:44.889Z,12.50
2023-01-01T10:40:22.749Z,13.80
2023-01-01T10:42:54.592Z,13.30
2023-01-01T10:45:35.679Z,11.40
2023-01-01T10:48:21.277Z,14.40
2023-01-01T10:50:54.828Z,12.90
2023-01-01T10:53:28.385Z,13.30
2023-01-01T10:56:04.546Z,12.70
2023-01-01T10:58:52.284Z,13.40
2023-01-01T11:01:25.013Z,11.80
2023-01-01T11:04:17.471Z,11.00
2023-01-01T11:06:48.003Z,14.20
2023-01-01T11:09:33.383Z,14.50
2023-01-01T11:12:19.109Z,11.60
2023-01-01T11:14:59.587Z,13.10
2023-01-01T11:17:31.669Z,14.80
2023-01-01T11:20:05.577Z,12.70
2023-01-01T11:23:17.759Z,12.70
2023-01-01T11:26:13.441Z,12.10
2023-01-01T11:29:02.701Z,10.80
2023-01-01T11:31:39.238Z,13.50
2023-01-01T11:34:36.372Z,13.70
2023-01-01T11:37:26.216Z,11.80
2023-01-01T11:40:03.972Z,12.50
2023-01-01T11:42:35.935Z,10.60
2023-01-01T11:45:23.236Z,12.10
2023-01-01T11:48:00.360Z,10.90
2023-01-01T11:50:30.796Z,15.30
2023-01-01T11:53:19.419Z,14.20
2023-01-01T11:55:47.629Z,13.30
2023-01-01T11:58:38.351Z,14.10
2023-01-01T12:01:31.859Z,13.30
2023-01-01T12:04:06.639Z,12.70
2023-01-01T12:06:46.878Z,12.40
2023-01-01T12:10:24.731Z,10.50
2023-01-01T12:13:13.578Z,10.80
2023-01-01T12:15:56.178Z,13.60
2023-01-01T12:18:42.766Z,12.70
2023-01-01T12:21:36.176Z,10.80
2023-01-01T12:24:10.098Z,9.40
2023-01-01T12:27:10.337Z,15.10
2023-01-01T12:30:01.651Z,15.60
2023-01-01T12:32:51.494Z,14.60
2023-01-01T12:35:29.395Z,12.60
2023-01-01T12:38:19.631Z,12.40
2023-01-01T12:41:23.052Z,11.20
2023-01-01T12:43:54.603Z,14.80
2023-01-01T12:46:58.916Z,12.80
2023-01-01T12:49:39.309Z,13.60
2023-01-01T12:52:40.288Z,11.10
2023-01-01T12:55:31.345Z,11.20
2023-01-01T12:58:21.404Z,12.30
2023-01-01T13:01:12.382Z,12.30
2023-01-01T13:04:22.783Z,12.70
2023-01-01T13:07:06.611Z,12.60
2023-01-01T13:10:05.541Z,13.50
2023-01-01T13:12:47.152Z,10.10
2023-01-01T13:15:37.389Z,11.20
2023-01-01T13:18:07.496Z,14.30
2023-01-01T13:20:42.444Z,15.60
2023-01-01T13:23:29.356Z,13.20
2023-01-01T13:26:31.934Z,13.30
2023-01-01T13:29:03.980Z,12.40
2023-01-01T13:31:39.527Z,13.20
2023-01-01T13:34:41.259Z,11.20
2023-01-01T13:37:17.371Z,12.90
2023-01-01T13:40:01.364Z,12.20
2023-01-01T13:42:59.007Z,15.20
2023-01-01T13:46:11.233Z,17.40
2023-01-01T13:49:03.015Z,12.60
2023-01-01T13:52:07.932Z,13.30
2023-01-01T13:55:00.237Z,12.60
2023-01-01T13:57:44.020Z,11.60
2023-01-01T14:00:32.695Z,10.30
2023-01-01T14:03:07.122Z,15.10
2023-01-01T14:05:43.074Z,16.30
2023-01-01T14:08:34.399Z,13.80
2023-01-01T14:11:22.523Z,14.60
2023-01-01T14:13:51.134Z,13.70
2023-01-01T14:16:19.589Z,13.30
2023-01-01T14:18:51.161Z,14.70
2023-01-01T14:21:23.488Z,16.40
2023-01-01T14:23:59.593Z,17.50
2023-01-01T14:26:35.913Z,16.10
2023-01-01T14:29:14.144Z,12.70
2023-01-01T14:31:46.338Z,19.30
2023-01-01T14:34:31.603Z,16.50
2023-01-01T14:37:12.430Z,15.80
2023-01-01T14:39:51.424Z,12.40
2023-01-01T14:42:30.188Z,16.00
2023-01-01T14:44:59.568Z,15.30
2023-01-01T14:47:36.104Z,15.30
2023-01-01T14:50:29.164Z,14.70
2023-01-01T14:53:12.230Z,17.50
2023-01-01T14:55:45.995Z,18.60
2023-01-01T14:58:21.123Z,17.50
2023-01-01T15:00:51.460Z,19.10
2023-01-01T15:03:22.679Z,16.70
2023-01-01T15:06:03.727Z,18.50
2023-01-01T15:08:32.463Z,22.50
2023-01-01T15:11:03.881Z,23.30
2023-01-01T15:13:32.237Z,24.50
2023-01-01T15:16:18.776Z,26.30
2023-01-01T15:18:50.896Z,25.20
2023-01-01T15:21:31.206Z,24.00
2023-01-01T15:24:11.497Z,29.90
2023-01-01T15:26:44.669Z,29.80
2023-01-01T15:29:24.107Z,27.40
2023-01-01T15:31:57.528Z,25.20
2023-01-01T15:34:32.615Z,22.30
2023-01-01T15:37:19.420Z,23.80
2023-01-01T15:39:51.389Z,25.30
2023-01-01T15:42:22.808Z,22.90
2023-01-01T15:44:51.179Z,24.40
2023-01-01T15:47:26.602Z,27.20
2023-01-01T15:50:26.451Z,25.40
2023-01-01T15:52:59.379Z,32.70
2023-01-01T15:55:32.381Z,36.50
2023-01-01T15:58:03.221Z,34.30
2023-01-01T16:00:38.795Z,34.80
2023-01-01T16:03:20.401Z,42.60
2023-01-01T16:05:52.243Z,38.60
2023-01-01T16:08:20.530Z,39.10
2023-01-01T16:10:51.235Z,41.10
2023-01-01T16:13:19.630Z,33.80
2023-01-01T16:16:32.438Z,29.80
2023-01-01T16:19:01.331Z,30.70
2023-01-01T16:21:34.945Z,27.20
2023-01-01T16:24:03.419Z,33.40
2023-01-01T16:26:31.777Z,23.20
2023-01-01T16:29:00.113Z,25.90
2023-01-01T16:31:28.826Z,23.10
2023-01-01T16:34:04.352Z,27.30
2023-01-01T16:36:32.914Z,41.10
2023-01-01T16:39:01.357Z,42.10
2023-01-01T16:41:31.860Z,38.70
2023-01-01T16:44:01.037Z,39.30
2023-01-01T16:46:29.535Z,46.40
2023-01-01T16:48:58.452Z,66.10
2023-01-01T16:51:31.514Z,128.30
2023-01-01T16:54:01.189Z,216.10
2023-01-01T16:56:30.497Z,252.40
2023-01-01T16:59:03.250Z,182.20
2023-01-01T17:01:32.558Z,152.00
2023-01-01T17:04:01.395Z,110.30
2023-01-01T17:06:29.891Z,92.70
2023-01-01T17:09:01.691Z,64.60
2023-01-01T17:11:30.659Z,60.50
2023-01-01T17:13:59.909Z,55.80
2023-01-01T17:16:34.447Z,68.00
2023-01-01T17:19:21.136Z,60.60
2023-01-01T17:21:50.612Z,88.20
2023-01-01T17:24:20.526Z,84.20
2023-01-01T17:26:54.090Z,76.20
2023-01-01T17:29:24.217Z,82.80
2023-01-01T17:31:53.891Z,105.40
2023-01-01T17:34:22.280Z,70.80
2023-01-01T17:36:50.809Z,68.90
2023-01-01T17:39:19.117Z,65.00
2023-01-01T17:41:48.973Z,55.50
2023-01-01T17:44:18.466Z,97.60
2023-01-01T17:46:46.948Z,82.20
2023-01-01T17:49:16.067Z,67.10
2023-01-01T17:51:44.649Z,60.70
2023-01-01T17:54:13.924Z,40.90
2023-01-01T17:56:42.973Z,33.90
2023-01-01T17:59:12.316Z,34.30
2023-01-01T18:01:40.804Z,30.10
2023-01-01T18:04:11.066Z,33.00
2023-01-01T18:06:43.593Z,34.20
2023-01-01T18:09:17.092Z,33.00
2023-01-01T18:11:45.844Z,36.70
2023-01-01T18:14:18.359Z,42.50
2023-01-01T18:16:51.682Z,36.70
2023-01-01T18:19:20.852Z,40.50
2023-01-01T18:21:49.426Z,46.30
2023-01-01T18:24:19.236Z,51.90
2023-01-01T18:26:50.226Z,44.00
2023-01-01T18:29:19.737Z,46.40
2023-01-01T18:31:52.259Z,48.00
2023-01-01T18:34:21.779Z,54.40
2023-01-01T18:36:50.260Z,42.50
2023-01-01T18:39:27.467Z,41.00
2023-01-01T18:41:55.900Z,35.00
2023-01-01T18:44:28.539Z,39.00
2023-01-01T18:47:02.410Z,40.10
2023-01-01T18:49:52.719Z,31.50
2023-01-01T18:52:23.076Z,32.80
2023-01-01T18:55:07.950Z,36.70
2023-01-01T18:57:40.231Z,33.40
2023-01-01T19:00:26.248Z,40.00
2023-01-01T19:03:00.786Z,40.90
2023-01-01T19:08:08.307Z,40.70
2023-01-01T19:10:47.757Z,33.90
2023-01-01T19:13:32.053Z,39.00
2023-01-01T19:16:11.979Z,38.50
2023-01-01T19:18:44.129Z,38.10
2023-01-01T19:21:12.777Z,32.70
2023-01-01T19:23:51.330Z,32.80
2023-01-01T19:26:26.130Z,32.80
2023-01-01T19:29:19.777Z,31.20
2023-01-01T19:31:51.641Z,32.40
2023-01-01T19:34:20.983Z,34.70
2023-01-01T19:36:50.833Z,34.70
2023-01-01T19:39:21.517Z,38.30
2023-01-01T19:41:52.919Z,37.20
2023-01-01T19:44:24.968Z,36.10
2023-01-01T19:46:54.360Z,36.80
2023-01-01T19:49:24.131Z,37.60
2023-01-01T19:51:52.693Z,34.90
2023-01-01T19:54:21.013Z,37.90
2023-01-01T19:56:50.668Z,36.80
2023-01-01T19:59:22.737Z,35.00
2023-01-01T20:02:25.826Z,31.90
2023-01-01T20:04:43.385Z,30.00
2023-01-01T20:07:14.587Z,27.90
2023-01-01T20:09:44.242Z,29.40
2023-01-01T20:12:14.291Z,27.70
2023-01-01T20:14:42.805Z,29.10
2023-01-01T20:17:11.648Z,26.60
2023-01-01T20:19:42.546Z,29.90
2023-01-01T20:22:17.926Z,30.80
2023-01-01T20:24:46.515Z,31.10
2023-01-01T20:27:18.033Z,29.20
2023-01-01T20:29:46.551Z,26.50
2023-01-01T20:32:16.438Z,24.70
2023-01-01T20:34:45.921Z,24.70
2023-01-01T20:37:33.095Z,25.40
2023-01-01T20:40:05.557Z,23.00
2023-01-01T20:42:34.038Z,23.50
2023-01-01T20:45:07.921Z,25.30
2023-01-01T20:47:37.233Z,25.70
2023-01-01T20:50:07.008Z,22.90
2023-01-01T20:52:35.408Z,26.00
2023-01-01T20:55:04.213Z,24.90
2023-01-01T20:57:32.848Z,21.30
2023-01-01T21:00:03.076Z,25.60
2023-01-01T21:02:31.591Z,24.80
2023-01-01T21:05:00.680Z,22.90
2023-01-01T21:07:29.103Z,20.20
2023-01-01T21:09:57.407Z,23.00
2023-01-01T21:12:25.746Z,21.40
2023-01-01T21:14:56.181Z,23.60
2023-01-01T21:17:24.817Z,23.00
2023-01-01T21:19:56.908Z,21.90
2023-01-01T21:22:26.871Z,20.70
2023-01-01T21:25:16.916Z,22.10
2023-01-01T21:27:46.352Z,24.50
2023-01-01T21:30:15.712Z,20.70
2023-01-01T21:32:51.193Z,22.50
2023-01-01T21:35:23.775Z,25.20
2023-01-01T21:37:57.418Z,21.40
2023-01-01T21:40:39.907Z,22.60
2023-01-01T21:43:08.273Z,21.20
2023-01-01T21:45:38.566Z,21.00
2023-01-01T21:48:20.219Z,24.20
2023-01-01T21:50:52.086Z,24.60
2023-01-01T21:53:24.690Z,27.50
2023-01-01T21:55:55.554Z,24.00
2023-01-01T21:58:52.247Z,21.70
2023-01-01T22:01:36.718Z,20.70
2023-01-01T22:04:08.148Z,21.90
2023-01-01T22:06:39.012Z,21.80
2023-01-01T22:09:13.147Z,23.80
2023-01-01T22:11:41.716Z,22.90
2023-01-01T22:14:19.902Z,23.10
2023-01-01T22:16:51.829Z,21.10
2023-01-01T22:19:23.793Z,21.70
2023-01-01T22:21:53.525Z,22.00
2023-01-01T22:24:27.582Z,22.30
2023-01-01T22:26:57.662Z,23.30
2023-01-01T22:29:26.958Z,25.80
2023-01-01T22:32:33.129Z,23.10
2023-01-01T22:37:41.170Z,20.70
2023-01-01T22:40:29.451Z,21.70
2023-01-01T22:43:02.835Z,19.30
2023-01-01T22:45:33.524Z,20.30
2023-01-01T22:48:05.951Z,19.90
2023-01-01T22:50:34.602Z,24.40
2023-01-01T22:53:02.938Z,21.20
2023-01-01T22:55:31.220Z,23.80
2023-01-01T22:57:59.569Z,24.40
2023-01-01T23:00:27.914Z,27.80
2023-01-01T23:02:56.345Z,29.30
2023-01-01T23:05:24.791Z,26.10
2023-01-01T23:07:53.588Z,29.40
2023-01-01T23:10:22.067Z,33.10
2023-01-01T23:12:50.433Z,32.30
2023-01-01T23:15:37.582Z,33.00
2023-01-01T23:18:09.543Z,34.00
2023-01-01T23:20:37.906Z,36.40
2023-01-01T23:23:07.318Z,68.50
2023-01-01T23:25:35.704Z,69.70
2023-01-01T23:28:04.213Z,47.30
2023-01-01T23:30:33.665Z,46.40
2023-01-01T23:33:02.107Z,40.60
2023-01-01T23:35:30.412Z,40.90
2023-01-01T23:38:00.630Z,36.10
2023-01-01T23:40:29.056Z,35.10
2023-01-01T23:42:58.786Z,30.80
2023-01-01T23:45:27.930Z,32.50
2023-01-01T23:47:57.258Z,27.40
2023-01-01T23:50:25.729Z,29.10
2023-01-01T23:52:53.992Z,21.80
2023-01-01T23:55:23.031Z,19.70
2023-01-01T23:57:52.568Z,44.80
